sensor_id;sensor_type;location;lat;lon;timestamp;P1;durP1;ratioP1;P2;durP2;ratioP2
32026;SDS011;18543;50.848;4.596;2023-02-01T00:01:07;8.37;;;3.97;;
32026;SDS011;18543;50.848;4.596;2023-02-01T00:06:01;6.22;;;3.70;;
32026;SDS011;18543;50.848;4.596;2023-02-01T00:08:29;6.15;;;4.00;;
32026;SDS011;18543;50.848;4.596;2023-02-01T00:11:00;5.50;;;3.75;;
32026;SDS011;18543;50.848;4.596;2023-02-01T00:13:29;5.68;;;3.40;;
32026;SDS011;18543;50.848;4.596;2023-02-01T00:18:44;8.30;;;4.03;;
32026;SDS011;18543;50.848;4.596;2023-02-01T00:21:13;5.70;;;3.63;;
32026;SDS011;18543;50.848;4.596;2023-02-01T00:23:43;7.50;;;3.63;;
32026;SDS011;18543;50.848;4.596;2023-02-01T00:26:12;7.00;;;3.88;;
32026;SDS011;18543;50.848;4.596;2023-02-01T00:28:42;5.20;;;3.70;;
32026;SDS011;18543;50.848;4.596;2023-02-01T00:31:09;6.03;;;3.28;;
32026;SDS011;18543;50.848;4.596;2023-02-01T00:33:36;5.57;;;3.47;;
32026;SDS011;18543;50.848;4.596;2023-02-01T00:36:04;7.03;;;3.57;;
32026;SDS011;18543;50.848;4.596;2023-02-01T00:38:35;8.15;;;3.70;;
32026;SDS011;18543;50.848;4.596;2023-02-01T00:41:06;7.78;;;3.30;;
32026;SDS011;18543;50.848;4.596;2023-02-01T00:43:36;5.47;;;3.28;;
32026;SDS011;18543;50.848;4.596;2023-02-01T00:46:04;5.35;;;3.45;;
32026;SDS011;18543;50.848;4.596;2023-02-01T00:48:32;5.28;;;3.42;;
32026;SDS011;18543;50.848;4.596;2023-02-01T00:51:03;6.85;;;3.80;;
32026;SDS011;18543;50.848;4.596;2023-02-01T00:53:32;5.97;;;3.60;;
32026;SDS011;18543;50.848;4.596;2023-02-01T00:55:59;5.97;;;3.40;;
32026;SDS011;18543;50.848;4.596;2023-02-01T00:58:29;5.18;;;3.45;;
32026;SDS011;18543;50.848;4.596;2023-02-01T01:01:07;5.50;;;3.40;;
32026;SDS011;18543;50.848;4.596;2023-02-01T01:03:43;5.80;;;3.40;;
32026;SDS011;18543;50.848;4.596;2023-02-01T01:06:14;5.80;;;3.28;;
32026;SDS011;18543;50.848;4.596;2023-02-01T01:08:45;7.13;;;3.63;;
32026;SDS011;18543;50.848;4.596;2023-02-01T01:11:17;5.22;;;3.15;;
32026;SDS011;18543;50.848;4.596;2023-02-01T01:13:46;6.25;;;3.45;;
32026;SDS011;18543;50.848;4.596;2023-02-01T01:16:14;8.18;;;3.70;;
32026;SDS011;18543;50.848;4.596;2023-02-01T01:18:42;6.53;;;3.50;;
32026;SDS011;18543;50.848;4.596;2023-02-01T01:21:12;5.25;;;3.38;;
32026;SDS011;18543;50.848;4.596;2023-02-01T01:23:43;5.75;;;3.67;;
32026;SDS011;18543;50.848;4.596;2023-02-01T01:26:21;6.68;;;3.33;;
32026;SDS011;18543;50.848;4.596;2023-02-01T01:28:50;4.38;;;3.00;;
32026;SDS011;18543;50.848;4.596;2023-02-01T01:31:18;5.18;;;3.70;;
32026;SDS011;18543;50.848;4.596;2023-02-01T01:33:53;5.15;;;3.03;;
32026;SDS011;18543;50.848;4.596;2023-02-01T01:36:22;5.45;;;3.58;;
32026;SDS011;18543;50.848;4.596;2023-02-01T01:38:49;6.85;;;3.70;;
32026;SDS011;18543;50.848;4.596;2023-02-01T01:41:18;4.47;;;2.83;;
32026;SDS011;18543;50.848;4.596;2023-02-01T01:43:48;5.78;;;3.20;;
32026;SDS011;18543;50.848;4.596;2023-02-01T01:46:16;5.68;;;3.30;;
32026;SDS011;18543;50.848;4.596;2023-02-01T01:48:49;5.78;;;3.25;;
32026;SDS011;18543;50.848;4.596;2023-02-01T01:51:29;4.93;;;3.10;;
32026;SDS011;18543;50.848;4.596;2023-02-01T01:54:03;7.35;;;3.42;;
32026;SDS011;18543;50.848;4.596;2023-02-01T01:57:00;5.47;;;3.20;;
32026;SDS011;18543;50.848;4.596;2023-02-01T01:59:31;4.80;;;3.10;;
32026;SDS011;18543;50.848;4.596;2023-02-01T02:02:00;5.25;;;3.08;;
32026;SDS011;18543;50.848;4.596;2023-02-01T02:04:28;6.50;;;3.38;;
32026;SDS011;18543;50.848;4.596;2023-02-01T02:07:02;4.65;;;2.80;;
32026;SDS011;18543;50.848;4.596;2023-02-01T02:09:32;4.85;;;3.28;;
32026;SDS011;18543;50.848;4.596;2023-02-01T02:12:02;5.55;;;3.20;;
32026;SDS011;18543;50.848;4.596;2023-02-01T02:14:29;6.27;;;3.30;;
32026;SDS011;18543;50.848;4.596;2023-02-01T02:34:10;5.70;;;3.17;;
32026;SDS011;18543;50.848;4.596;2023-02-01T02:42:29;4.90;;;3.10;;
32026;SDS011;18543;50.848;4.596;2023-02-01T02:48:30;6.30;;;3.03;;
32026;SDS011;18543;50.848;4.596;2023-02-01T02:54:05;5.20;;;2.80;;
32026;SDS011;18543;50.848;4.596;2023-02-01T02:56:58;5.22;;;3.03;;
32026;SDS011;18543;50.848;4.596;2023-02-01T02:59:47;4.45;;;2.55;;
32026;SDS011;18543;50.848;4.596;2023-02-01T03:02:33;6.63;;;3.30;;
32026;SDS011;18543;50.848;4.596;2023-02-01T03:05:19;6.47;;;3.47;;
32026;SDS011;18543;50.848;4.596;2023-02-01T03:08:03;6.55;;;2.85;;
32026;SDS011;18543;50.848;4.596;2023-02-01T03:13:14;5.15;;;3.00;;
32026;SDS011;18543;50.848;4.596;2023-02-01T03:18:26;5.18;;;2.90;;
32026;SDS011;18543;50.848;4.596;2023-02-01T03:20:57;6.03;;;2.95;;
32026;SDS011;18543;50.848;4.596;2023-02-01T03:23:30;5.65;;;2.80;;
32026;SDS011;18543;50.848;4.596;2023-02-01T03:26:00;6.43;;;2.80;;
32026;SDS011;18543;50.848;4.596;2023-02-01T03:28:33;6.00;;;2.90;;
32026;SDS011;18543;50.848;4.596;2023-02-01T03:31:03;4.72;;;2.97;;
32026;SDS011;18543;50.848;4.596;2023-02-01T03:33:31;4.93;;;2.72;;
32026;SDS011;18543;50.848;4.596;2023-02-01T03:36:01;5.60;;;3.00;;
32026;SDS011;18543;50.848;4.596;2023-02-01T03:41:12;5.32;;;2.53;;
32026;SDS011;18543;50.848;4.596;2023-02-01T03:43:48;6.03;;;3.10;;
32026;SDS011;18543;50.848;4.596;2023-02-01T03:46:18;5.15;;;2.50;;
32026;SDS011;18543;50.848;4.596;2023-02-01T03:49:03;4.57;;;2.90;;
32026;SDS011;18543;50.848;4.596;2023-02-01T03:51:33;6.47;;;3.28;;
32026;SDS011;18543;50.848;4.596;2023-02-01T03:54:05;4.85;;;2.83;;
32026;SDS011;18543;50.848;4.596;2023-02-01T03:56:36;4.75;;;2.72;;
32026;SDS011;18543;50.848;4.596;2023-02-01T03:59:04;5.85;;;2.70;;
32026;SDS011;18543;50.848;4.596;2023-02-01T04:01:31;4.95;;;2.60;;
32026;SDS011;18543;50.848;4.596;2023-02-01T04:03:59;6.25;;;2.88;;
32026;SDS011;18543;50.848;4.596;2023-02-01T04:06:26;4.60;;;2.67;;
32026;SDS011;18543;50.848;4.596;2023-02-01T04:08:54;6.72;;;2.80;;
32026;SDS011;18543;50.848;4.596;2023-02-01T04:11:20;4.38;;;2.50;;
32026;SDS011;18543;50.848;4.596;2023-02-01T04:13:50;4.95;;;2.80;;
32026;SDS011;18543;50.848;4.596;2023-02-01T04:16:17;4.88;;;2.70;;
32026;SDS011;18543;50.848;4.596;2023-02-01T04:18:44;5.22;;;2.85;;
32026;SDS011;18543;50.848;4.596;2023-02-01T04:21:11;7.70;;;2.55;;
32026;SDS011;18543;50.848;4.596;2023-02-01T04:23:38;5.68;;;2.70;;
32026;SDS011;18543;50.848;4.596;2023-02-01T04:26:05;6.05;;;3.10;;
32026;SDS011;18543;50.848;4.596;2023-02-01T04:28:32;5.28;;;2.80;;
32026;SDS011;18543;50.848;4.596;2023-02-01T04:30:59;5.15;;;2.53;;
32026;SDS011;18543;50.848;4.596;2023-02-01T04:33:26;5.82;;;2.53;;
32026;SDS011;18543;50.848;4.596;2023-02-01T04:35:53;5.68;;;3.15;;
32026;SDS011;18543;50.848;4.596;2023-02-01T04:38:20;5.20;;;2.40;;
32026;SDS011;18543;50.848;4.596;2023-02-01T04:40:47;4.18;;;2.60;;
32026;SDS011;18543;50.848;4.596;2023-02-01T04:48:14;4.03;;;2.35;;
32026;SDS011;18543;50.848;4.596;2023-02-01T04:50:42;5.45;;;2.78;;
32026;SDS011;18543;50.848;4.596;2023-02-01T04:53:15;5.10;;;2.75;;
32026;SDS011;18543;50.848;4.596;2023-02-01T04:58:10;4.50;;;2.60;;
32026;SDS011;18543;50.848;4.596;2023-02-01T05:00:37;4.87;;;2.30;;
32026;SDS011;18543;50.848;4.596;2023-02-01T05:03:04;5.18;;;2.83;;
32026;SDS011;18543;50.848;4.596;2023-02-01T05:05:33;5.20;;;2.35;;
32026;SDS011;18543;50.848;4.596;2023-02-01T05:08:00;3.90;;;2.45;;
32026;SDS011;18543;50.848;4.596;2023-02-01T05:10:27;5.15;;;2.65;;
32026;SDS011;18543;50.848;4.596;2023-02-01T05:12:54;5.40;;;2.80;;
32026;SDS011;18543;50.848;4.596;2023-02-01T05:15:40;5.63;;;2.58;;
32026;SDS011;18543;50.848;4.596;2023-02-01T05:18:07;5.53;;;2.72;;
32026;SDS011;18543;50.848;4.596;2023-02-01T05:20:34;5.55;;;2.63;;
32026;SDS011;18543;50.848;4.596;2023-02-01T05:23:01;3.67;;;2.53;;
32026;SDS011;18543;50.848;4.596;2023-02-01T05:25:28;4.95;;;2.90;;
32026;SDS011;18543;50.848;4.596;2023-02-01T05:27:55;5.03;;;2.40;;
32026;SDS011;18543;50.848;4.596;2023-02-01T05:30:22;5.18;;;2.75;;
32026;SDS011;18543;50.848;4.596;2023-02-01T05:32:50;4.97;;;2.35;;
32026;SDS011;18543;50.848;4.596;2023-02-01T05:37:48;6.97;;;2.83;;
32026;SDS011;18543;50.848;4.596;2023-02-01T05:40:15;5.97;;;2.50;;
32026;SDS011;18543;50.848;4.596;2023-02-01T05:42:42;7.53;;;2.83;;
32026;SDS011;18543;50.848;4.596;2023-02-01T05:45:09;5.43;;;2.90;;
32026;SDS011;18543;50.848;4.596;2023-02-01T05:47:37;6.10;;;2.90;;
32026;SDS011;18543;50.848;4.596;2023-02-01T05:50:04;5.45;;;2.65;;
32026;SDS011;18543;50.848;4.596;2023-02-01T05:52:32;6.18;;;2.58;;
32026;SDS011;18543;50.848;4.596;2023-02-01T05:54:59;6.72;;;2.78;;
32026;SDS011;18543;50.848;4.596;2023-02-01T05:57:27;7.18;;;2.42;;
32026;SDS011;18543;50.848;4.596;2023-02-01T05:59:54;9.30;;;3.20;;
32026;SDS011;18543;50.848;4.596;2023-02-01T06:02:21;11.25;;;3.30;;
32026;SDS011;18543;50.848;4.596;2023-02-01T06:04:50;6.38;;;2.85;;
32026;SDS011;18543;50.848;4.596;2023-02-01T06:07:17;10.23;;;2.70;;
32026;SDS011;18543;50.848;4.596;2023-02-01T06:09:48;8.27;;;3.35;;
32026;SDS011;18543;50.848;4.596;2023-02-01T06:12:16;8.18;;;3.38;;
32026;SDS011;18543;50.848;4.596;2023-02-01T06:14:45;8.82;;;3.67;;
32026;SDS011;18543;50.848;4.596;2023-02-01T06:17:15;13.30;;;4.65;;
32026;SDS011;18543;50.848;4.596;2023-02-01T18:12:15;24.60;;;11.10;;
32026;SDS011;18543;50.848;4.596;2023-02-01T18:14:46;27.55;;;11.65;;
32026;SDS011;18543;50.848;4.596;2023-02-01T18:19:41;22.33;;;11.13;;
32026;SDS011;18543;50.848;4.596;2023-02-01T18:22:15;25.77;;;10.68;;
32026;SDS011;18543;50.848;4.596;2023-02-01T18:24:44;23.52;;;11.07;;
32026;SDS011;18543;50.848;4.596;2023-02-01T18:27:12;27.75;;;10.38;;
32026;SDS011;18543;50.848;4.596;2023-02-01T18:29:39;24.00;;;10.75;;
32026;SDS011;18543;50.848;4.596;2023-02-01T18:32:07;28.98;;;10.80;;
32026;SDS011;18543;50.848;4.596;2023-02-01T18:34:36;26.42;;;10.27;;
32026;SDS011;18543;50.848;4.596;2023-02-01T18:37:03;25.15;;;10.45;;
32026;SDS011;18543;50.848;4.596;2023-02-01T18:39:31;20.33;;;10.45;;
32026;SDS011;18543;50.848;4.596;2023-02-01T18:41:58;23.70;;;10.30;;
32026;SDS011;18543;50.848;4.596;2023-02-01T18:44:25;21.30;;;10.50;;
32026;SDS011;18543;50.848;4.596;2023-02-01T18:46:52;24.08;;;10.45;;
32026;SDS011;18543;50.848;4.596;2023-02-01T18:49:19;22.65;;;10.73;;
32026;SDS011;18543;50.848;4.596;2023-02-01T18:51:46;17.90;;;9.43;;
32026;SDS011;18543;50.848;4.596;2023-02-01T18:54:13;23.52;;;10.30;;
32026;SDS011;18543;50.848;4.596;2023-02-01T18:56:40;21.50;;;10.05;;
32026;SDS011;18543;50.848;4.596;2023-02-01T19:01:36;17.38;;;9.95;;
32026;SDS011;18543;50.848;4.596;2023-02-01T19:04:04;22.75;;;10.55;;
32026;SDS011;18543;50.848;4.596;2023-02-01T19:06:50;22.45;;;9.75;;
32026;SDS011;18543;50.848;4.596;2023-02-01T19:09:17;18.88;;;9.13;;
32026;SDS011;18543;50.848;4.596;2023-02-01T19:11:44;23.92;;;9.75;;
32026;SDS011;18543;50.848;4.596;2023-02-01T19:14:11;20.40;;;9.55;;
32026;SDS011;18543;50.848;4.596;2023-02-01T19:16:38;19.67;;;9.27;;
32026;SDS011;18543;50.848;4.596;2023-02-01T19:19:05;21.63;;;10.13;;
32026;SDS011;18543;50.848;4.596;2023-02-01T19:21:33;22.15;;;9.38;;
32026;SDS011;18543;50.848;4.596;2023-02-01T19:24:00;21.52;;;10.07;;
32026;SDS011;18543;50.848;4.596;2023-02-01T19:26:29;18.15;;;9.50;;
32026;SDS011;18543;50.848;4.596;2023-02-01T19:28:57;18.45;;;9.23;;
32026;SDS011;18543;50.848;4.596;2023-02-01T19:31:24;18.00;;;8.63;;
32026;SDS011;18543;50.848;4.596;2023-02-01T19:33:51;18.85;;;9.23;;
32026;SDS011;18543;50.848;4.596;2023-02-01T19:36:17;16.92;;;9.40;;
32026;SDS011;18543;50.848;4.596;2023-02-01T19:38:45;14.90;;;9.10;;
32026;SDS011;18543;50.848;4.596;2023-02-01T19:41:11;15.87;;;8.53;;
32026;SDS011;18543;50.848;4.596;2023-02-01T19:43:38;18.70;;;9.30;;
32026;SDS011;18543;50.848;4.596;2023-02-01T19:46:05;17.42;;;8.48;;
32026;SDS011;18543;50.848;4.596;2023-02-01T19:48:32;17.80;;;8.75;;
32026;SDS011;18543;50.848;4.596;2023-02-01T19:50:59;17.02;;;8.27;;
32026;SDS011;18543;50.848;4.596;2023-02-01T19:53:26;18.40;;;8.80;;
32026;SDS011;18543;50.848;4.596;2023-02-01T19:58:23;16.10;;;9.13;;
32026;SDS011;18543;50.848;4.596;2023-02-01T20:00:51;14.20;;;8.23;;
32026;SDS011;18543;50.848;4.596;2023-02-01T20:03:23;17.58;;;8.45;;
32026;SDS011;18543;50.848;4.596;2023-02-01T20:05:53;15.38;;;8.35;;
32026;SDS011;18543;50.848;4.596;2023-02-01T20:08:24;14.68;;;7.82;;
32026;SDS011;18543;50.848;4.596;2023-02-01T20:10:52;13.85;;;8.05;;
32026;SDS011;18543;50.848;4.596;2023-02-01T20:13:19;18.42;;;8.40;;
32026;SDS011;18543;50.848;4.596;2023-02-01T20:15:46;15.45;;;7.93;;
32026;SDS011;18543;50.848;4.596;2023-02-01T20:18:13;13.63;;;7.78;;
32026;SDS011;18543;50.848;4.596;2023-02-01T20:20:40;16.73;;;7.88;;
32026;SDS011;18543;50.848;4.596;2023-02-01T20:23:10;12.82;;;7.50;;
32026;SDS011;18543;50.848;4.596;2023-02-01T20:25:37;16.35;;;7.95;;
32026;SDS011;18543;50.848;4.596;2023-02-01T20:28:04;11.82;;;7.22;;
32026;SDS011;18543;50.848;4.596;2023-02-01T20:30:32;14.05;;;7.68;;
32026;SDS011;18543;50.848;4.596;2023-02-01T20:32:59;16.92;;;7.65;;
32026;SDS011;18543;50.848;4.596;2023-02-01T20:35:26;18.15;;;8.07;;
32026;SDS011;18543;50.848;4.596;2023-02-01T20:37:54;12.95;;;7.43;;
32026;SDS011;18543;50.848;4.596;2023-02-01T20:42:49;14.45;;;7.32;;
32026;SDS011;18543;50.848;4.596;2023-02-01T20:45:19;15.40;;;7.70;;
32026;SDS011;18543;50.848;4.596;2023-02-01T20:47:48;15.27;;;6.95;;
32026;SDS011;18543;50.848;4.596;2023-02-01T20:50:18;15.02;;;7.53;;
32026;SDS011;18543;50.848;4.596;2023-02-01T20:52:45;12.15;;;7.18;;
32026;SDS011;18543;50.848;4.596;2023-02-01T20:55:12;15.00;;;7.53;;
32026;SDS011;18543;50.848;4.596;2023-02-01T20:57:40;14.25;;;7.00;;
32026;SDS011;18543;50.848;4.596;2023-02-01T21:00:07;13.57;;;7.25;;
32026;SDS011;18543;50.848;4.596;2023-02-01T21:02:35;15.15;;;7.28;;
32026;SDS011;18543;50.848;4.596;2023-02-01T21:05:02;12.23;;;6.80;;
32026;SDS011;18543;50.848;4.596;2023-02-01T21:07:29;15.52;;;7.47;;
32026;SDS011;18543;50.848;4.596;2023-02-01T21:09:56;13.45;;;7.07;;
32026;SDS011;18543;50.848;4.596;2023-02-01T21:12:23;14.10;;;6.70;;
32026;SDS011;18543;50.848;4.596;2023-02-01T21:14:50;12.57;;;7.13;;
32026;SDS011;18543;50.848;4.596;2023-02-01T21:17:17;16.05;;;7.25;;
32026;SDS011;18543;50.848;4.596;2023-02-01T21:19:44;12.25;;;6.43;;
32026;SDS011;18543;50.848;4.596;2023-02-01T21:22:11;14.88;;;6.85;;
32026;SDS011;18543;50.848;4.596;2023-02-01T21:24:40;12.60;;;6.47;;
32026;SDS011;18543;50.848;4.596;2023-02-01T21:27:08;14.27;;;6.63;;
32026;SDS011;18543;50.848;4.596;2023-02-01T21:29:38;10.65;;;6.25;;
32026;SDS011;18543;50.848;4.596;2023-02-01T21:32:05;11.70;;;6.30;;
32026;SDS011;18543;50.848;4.596;2023-02-01T21:34:36;10.90;;;6.18;;
32026;SDS011;18543;50.848;4.596;2023-02-01T21:37:02;12.88;;;6.60;;
32026;SDS011;18543;50.848;4.596;2023-02-01T21:39:29;12.43;;;6.28;;
32026;SDS011;18543;50.848;4.596;2023-02-01T21:41:57;13.70;;;6.57;;
32026;SDS011;18543;50.848;4.596;2023-02-01T21:44:41;12.18;;;6.47;;
32026;SDS011;18543;50.848;4.596;2023-02-01T21:47:11;11.52;;;6.22;;
32026;SDS011;18543;50.848;4.596;2023-02-01T21:49:40;11.45;;;6.20;;
32026;SDS011;18543;50.848;4.596;2023-02-01T21:52:07;10.40;;;6.03;;
32026;SDS011;18543;50.848;4.596;2023-02-01T21:54:35;11.95;;;6.60;;
32026;SDS011;18543;50.848;4.596;2023-02-01T21:57:04;11.07;;;5.95;;
32026;SDS011;18543;50.848;4.596;2023-02-01T21:59:37;11.82;;;6.38;;
32026;SDS011;18543;50.848;4.596;2023-02-01T22:02:06;13.43;;;6.28;;
32026;SDS011;18543;50.848;4.596;2023-02-01T22:04:41;12.00;;;5.90;;
32026;SDS011;18543;50.848;4.596;2023-02-01T22:07:09;11.93;;;6.18;;
32026;SDS011;18543;50.848;4.596;2023-02-01T22:09:39;12.40;;;5.75;;
32026;SDS011;18543;50.848;4.596;2023-02-01T22:12:12;9.48;;;5.60;;
32026;SDS011;18543;50.848;4.596;2023-02-01T22:14:39;13.18;;;5.93;;
32026;SDS011;18543;50.848;4.596;2023-02-01T22:17:10;9.90;;;5.70;;
32026;SDS011;18543;50.848;4.596;2023-02-01T22:19:40;12.30;;;6.18;;
